sensor_id;sensor_type;location;lat;lon;timestamp;pressure;altitude;pressure_sealevel;temperature;humidity
44138;BME280;29800;55.942;37.314;2023-04-30T00:00:22;99825.56;;;6.59;56.79
44138;BME280;29800;55.942;37.314;2023-04-30T00:02:49;99830.25;;;6.52;56.72
44138;BME280;29800;55.942;37.314;2023-04-30T00:05:15;99839.28;;;6.46;56.35
44138;BME280;29800;55.942;37.314;2023-04-30T00:07:42;99842.16;;;6.51;56.60
44138;BME280;29800;55.942;37.314;2023-04-30T00:10:09;99838.03;;;6.48;56.25
44138;BME280;29800;55.942;37.314;2023-04-30T00:12:37;99851.41;;;6.50;56.38
44138;BME280;29800;55.942;37.314;2023-04-30T00:15:04;99846.00;;;6.43;56.35
44138;BME280;29800;55.942;37.314;2023-04-30T00:17:32;99840.34;;;6.13;57.15
44138;BME280;29800;55.942;37.314;2023-04-30T00:20:00;99845.94;;;5.79;57.06
44138;BME280;29800;55.942;37.314;2023-04-30T00:22:27;99849.78;;;5.58;57.88
44138;BME280;29800;55.942;37.314;2023-04-30T00:24:53;99856.13;;;5.32;58.74
44138;BME280;29800;55.942;37.314;2023-04-30T00:27:20;99862.88;;;4.96;59.39
44138;BME280;29800;55.942;37.314;2023-04-30T00:29:47;99861.41;;;4.73;60.10
44138;BME280;29800;55.942;37.314;2023-04-30T00:32:13;99869.75;;;4.52;61.12
44138;BME280;29800;55.942;37.314;2023-04-30T00:34:41;99870.75;;;4.24;61.43
44138;BME280;29800;55.942;37.314;2023-04-30T00:37:07;99869.03;;;4.03;62.43
44138;BME280;29800;55.942;37.314;2023-04-30T00:39:34;99866.09;;;3.91;63.20
44138;BME280;29800;55.942;37.314;2023-04-30T00:42:00;99863.13;;;3.73;63.77
44138;BME280;29800;55.942;37.314;2023-04-30T00:44:27;99863.91;;;3.60;63.73
44138;BME280;29800;55.942;37.314;2023-04-30T00:46:54;99872.34;;;3.43;64.63
44138;BME280;29800;55.942;37.314;2023-04-30T00:49:20;99877.50;;;3.31;65.46
44138;BME280;29800;55.942;37.314;2023-04-30T00:51:47;99872.84;;;3.19;66.15
44138;BME280;29800;55.942;37.314;2023-04-30T00:54:14;99873.59;;;3.06;66.22
44138;BME280;29800;55.942;37.314;2023-04-30T00:56:41;99872.66;;;2.92;66.46
44138;BME280;29800;55.942;37.314;2023-04-30T00:59:08;99879.25;;;2.83;67.61
44138;BME280;29800;55.942;37.314;2023-04-30T01:01:36;99867.56;;;2.75;67.36
44138;BME280;29800;55.942;37.314;2023-04-30T01:04:03;99859.97;;;2.64;67.53
44138;BME280;29800;55.942;37.314;2023-04-30T01:06:30;99871.13;;;2.54;68.41
44138;BME280;29800;55.942;37.314;2023-04-30T01:08:57;99865.66;;;2.48;68.43
44138;BME280;29800;55.942;37.314;2023-04-30T01:14:30;99870.47;;;2.31;68.90
44138;BME280;29800;55.942;37.314;2023-04-30T01:17:09;99862.31;;;2.24;69.71
44138;BME280;29800;55.942;37.314;2023-04-30T01:19:45;99871.84;;;2.20;70.21
44138;BME280;29800;55.942;37.314;2023-04-30T01:25:13;99878.13;;;2.06;70.76
44138;BME280;29800;55.942;37.314;2023-04-30T01:28:05;99873.66;;;1.98;70.31
44138;BME280;29800;55.942;37.314;2023-04-30T01:30:37;99876.22;;;1.84;70.81
44138;BME280;29800;55.942;37.314;2023-04-30T01:33:09;99880.72;;;1.77;71.90
44138;BME280;29800;55.942;37.314;2023-04-30T01:38:55;99869.06;;;1.77;71.64
44138;BME280;29800;55.942;37.314;2023-04-30T01:49:45;99880.44;;;1.57;72.91
44138;BME280;29800;55.942;37.314;2023-04-30T01:52:20;99874.13;;;1.50;73.16
44138;BME280;29800;55.942;37.314;2023-04-30T01:57:38;99877.38;;;1.45;73.77
44138;BME280;29800;55.942;37.314;2023-04-30T02:00:07;99871.91;;;1.39;73.92
44138;BME280;29800;55.942;37.314;2023-04-30T02:02:40;99882.06;;;1.37;74.13
44138;BME280;29800;55.942;37.314;2023-04-30T02:05:06;99884.75;;;1.37;74.54
44138;BME280;29800;55.942;37.314;2023-04-30T02:07:39;99880.75;;;1.33;74.52
44138;BME280;29800;55.942;37.314;2023-04-30T02:10:07;99866.97;;;1.27;74.69
44138;BME280;29800;55.942;37.314;2023-04-30T02:12:34;99871.72;;;1.25;74.69
44138;BME280;29800;55.942;37.314;2023-04-30T02:15:03;99862.81;;;1.25;74.95
44138;BME280;29800;55.942;37.314;2023-04-30T02:17:30;99861.31;;;1.22;74.80
44138;BME280;29800;55.942;37.314;2023-04-30T02:19:58;99866.06;;;1.20;74.91
44138;BME280;29800;55.942;37.314;2023-04-30T02:22:25;99864.19;;;1.21;75.50
44138;BME280;29800;55.942;37.314;2023-04-30T02:24:51;99863.38;;;1.20;75.22
44138;BME280;29800;55.942;37.314;2023-04-30T02:27:23;99858.81;;;1.21;75.11
44138;BME280;29800;55.942;37.314;2023-04-30T02:29:51;99854.22;;;1.21;76.06
44138;BME280;29800;55.942;37.314;2023-04-30T02:32:18;99853.50;;;1.27;76.08
44138;BME280;29800;55.942;37.314;2023-04-30T02:34:44;99854.16;;;1.44;76.75
44138;BME280;29800;55.942;37.314;2023-04-30T02:37:11;99854.59;;;1.63;76.49
44138;BME280;29800;55.942;37.314;2023-04-30T02:39:37;99848.50;;;1.76;75.56
44138;BME280;29800;55.942;37.314;2023-04-30T02:42:04;99845.81;;;1.76;75.81
44138;BME280;29800;55.942;37.314;2023-04-30T02:44:32;99845.38;;;1.72;75.01
44138;BME280;29800;55.942;37.314;2023-04-30T02:46:59;99839.47;;;1.69;75.58
44138;BME280;29800;55.942;37.314;2023-04-30T02:49:26;99849.44;;;1.68;75.84
44138;BME280;29800;55.942;37.314;2023-04-30T02:51:53;99844.88;;;1.69;76.12
44138;BME280;29800;55.942;37.314;2023-04-30T02:54:19;99844.06;;;1.68;76.33
44138;BME280;29800;55.942;37.314;2023-04-30T02:56:46;99841.81;;;1.72;75.64
44138;BME280;29800;55.942;37.314;2023-04-30T02:59:12;99840.78;;;1.73;76.03
44138;BME280;29800;55.942;37.314;2023-04-30T03:01:39;99843.13;;;1.76;76.04
44138;BME280;29800;55.942;37.314;2023-04-30T03:04:05;99838.72;;;1.75;75.88
44138;BME280;29800;55.942;37.314;2023-04-30T03:06:32;99840.03;;;1.79;76.43
44138;BME280;29800;55.942;37.314;2023-04-30T03:08:59;99842.31;;;1.82;76.56
44138;BME280;29800;55.942;37.314;2023-04-30T03:11:26;99833.84;;;1.85;76.33
44138;BME280;29800;55.942;37.314;2023-04-30T03:13:53;99831.41;;;1.90;76.87
44138;BME280;29800;55.942;37.314;2023-04-30T03:16:20;99835.22;;;1.96;77.07
44138;BME280;29800;55.942;37.314;2023-04-30T03:18:47;99837.34;;;2.00;76.59
44138;BME280;29800;55.942;37.314;2023-04-30T03:21:14;99835.56;;;2.08;77.00
44138;BME280;29800;55.942;37.314;2023-04-30T03:23:44;99826.69;;;2.14;77.38
44138;BME280;29800;55.942;37.314;2023-04-30T03:26:11;99827.38;;;2.23;77.00
44138;BME280;29800;55.942;37.314;2023-04-30T03:28:40;99829.75;;;2.32;77.68
44138;BME280;29800;55.942;37.314;2023-04-30T03:31:07;99825.06;;;2.41;77.88
44138;BME280;29800;55.942;37.314;2023-04-30T03:33:33;99817.28;;;2.53;77.96
44138;BME280;29800;55.942;37.314;2023-04-30T03:36:00;99815.28;;;2.68;77.56
44138;BME280;29800;55.942;37.314;2023-04-30T03:38:26;99808.94;;;2.83;77.66
44138;BME280;29800;55.942;37.314;2023-04-30T03:40:52;99810.31;;;3.00;78.38
44138;BME280;29800;55.942;37.314;2023-04-30T03:43:20;99812.03;;;3.15;77.55
44138;BME280;29800;55.942;37.314;2023-04-30T03:45:47;99805.66;;;3.29;78.37
44138;BME280;29800;55.942;37.314;2023-04-30T03:48:13;99804.69;;;3.43;78.01
44138;BME280;29800;55.942;37.314;2023-04-30T03:50:39;99798.31;;;3.58;77.60
44138;BME280;29800;55.942;37.314;2023-04-30T03:53:06;99795.25;;;3.74;77.79
44138;BME280;29800;55.942;37.314;2023-04-30T03:55:34;99788.78;;;3.89;77.47
44138;BME280;29800;55.942;37.314;2023-04-30T03:58:01;99789.47;;;4.04;77.32
44138;BME280;29800;55.942;37.314;2023-04-30T04:00:27;99795.72;;;4.18;77.12
44138;BME280;29800;55.942;37.314;2023-04-30T04:02:54;99788.25;;;4.33;76.40
44138;BME280;29800;55.942;37.314;2023-04-30T04:05:22;99786.13;;;4.49;75.92
44138;BME280;29800;55.942;37.314;2023-04-30T04:07:48;99783.22;;;4.64;75.99
44138;BME280;29800;55.942;37.314;2023-04-30T04:10:15;99786.75;;;4.77;75.64
44138;BME280;29800;55.942;37.314;2023-04-30T04:12:42;99790.25;;;4.91;75.14
44138;BME280;29800;55.942;37.314;2023-04-30T04:15:09;99779.38;;;5.05;74.75
44138;BME280;29800;55.942;37.314;2023-04-30T04:17:36;99779.31;;;5.18;74.25
44138;BME280;29800;55.942;37.314;2023-04-30T04:20:03;99781.81;;;5.33;73.66
44138;BME280;29800;55.942;37.314;2023-04-30T04:22:32;99780.47;;;5.49;73.82
44138;BME280;29800;55.942;37.314;2023-04-30T04:24:59;99778.31;;;5.64;72.70
44138;BME280;29800;55.942;37.314;2023-04-30T04:27:27;99774.47;;;5.79;72.67
44138;BME280;29800;55.942;37.314;2023-04-30T04:29:54;99778.56;;;5.95;72.14
44138;BME280;29800;55.942;37.314;2023-04-30T04:32:20;99775.56;;;6.10;71.17
44138;BME280;29800;55.942;37.314;2023-04-30T04:34:48;99760.38;;;6.27;71.02
44138;BME280;29800;55.942;37.314;2023-04-30T04:37:14;99763.59;;;6.42;70.33
44138;BME280;29800;55.942;37.314;2023-04-30T04:39:42;99757.59;;;6.59;69.25
44138;BME280;29800;55.942;37.314;2023-04-30T04:42:10;99762.44;;;6.75;68.71
44138;BME280;29800;55.942;37.314;2023-04-30T04:44:37;99756.91;;;6.89;68.96
44138;BME280;29800;55.942;37.314;2023-04-30T04:47:04;99755.69;;;7.03;69.58
44138;BME280;29800;55.942;37.314;2023-04-30T04:49:31;99754.09;;;7.14;68.49
44138;BME280;29800;55.942;37.314;2023-04-30T04:51:57;99759.59;;;7.26;67.67
44138;BME280;29800;55.942;37.314;2023-04-30T04:54:25;99756.94;;;7.38;67.24
44138;BME280;29800;55.942;37.314;2023-04-30T04:56:51;99754.91;;;7.51;66.92
44138;BME280;29800;55.942;37.314;2023-04-30T04:59:18;99751.41;;;7.63;66.44
44138;BME280;29800;55.942;37.314;2023-04-30T05:01:46;99750.13;;;7.77;66.54
44138;BME280;29800;55.942;37.314;2023-04-30T05:04:12;99752.22;;;7.94;66.02
44138;BME280;29800;55.942;37.314;2023-04-30T05:06:39;99760.81;;;8.33;66.96
44138;BME280;29800;55.942;37.314;2023-04-30T05:09:06;99749.25;;;8.49;64.97
44138;BME280;29800;55.942;37.314;2023-04-30T05:11:35;99753.41;;;8.75;64.13
44138;BME280;29800;55.942;37.314;2023-04-30T05:14:02;99755.91;;;9.00;62.89
44138;BME280;29800;55.942;37.314;2023-04-30T05:16:28;99753.25;;;9.17;62.11
44138;BME280;29800;55.942;37.314;2023-04-30T05:18:55;99745.66;;;9.31;62.78
44138;BME280;29800;55.942;37.314;2023-04-30T05:21:21;99751.84;;;9.55;61.70
44138;BME280;29800;55.942;37.314;2023-04-30T05:23:48;99746.84;;;9.64;60.09
44138;BME280;29800;55.942;37.314;2023-04-30T05:26:14;99751.53;;;9.81;59.57
44138;BME280;29800;55.942;37.314;2023-04-30T05:28:41;99741.19;;;10.00;57.95
44138;BME280;29800;55.942;37.314;2023-04-30T05:31:08;99743.34;;;10.15;58.25
44138;BME280;29800;55.942;37.314;2023-04-30T05:33:34;99750.75;;;10.31;57.01
44138;BME280;29800;55.942;37.314;2023-04-30T05:36:02;99747.41;;;10.58;56.38
44138;BME280;29800;55.942;37.314;2023-04-30T05:38:28;99749.28;;;10.74;55.54
44138;BME280;29800;55.942;37.314;2023-04-30T05:40:55;99746.53;;;11.13;55.96
44138;BME280;29800;55.942;37.314;2023-04-30T05:43:21;99743.75;;;11.30;54.55
44138;BME280;29800;55.942;37.314;2023-04-30T05:45:48;99749.16;;;11.47;53.93
44138;BME280;29800;55.942;37.314;2023-04-30T05:48:14;99744.94;;;11.62;53.34
44138;BME280;29800;55.942;37.314;2023-04-30T05:50:41;99745.13;;;11.82;53.08
44138;BME280;29800;55.942;37.314;2023-04-30T05:53:07;99743.28;;;11.88;50.77
44138;BME280;29800;55.942;37.314;2023-04-30T05:55:34;99747.28;;;11.97;50.53
44138;BME280;29800;55.942;37.314;2023-04-30T05:58:00;99739.44;;;12.11;48.77
44138;BME280;29800;55.942;37.314;2023-04-30T06:00:26;99743.66;;;12.24;49.58
44138;BME280;29800;55.942;37.314;2023-04-30T06:02:53;99740.78;;;12.41;48.34
44138;BME280;29800;55.942;37.314;2023-04-30T06:05:20;99740.72;;;12.68;49.00
44138;BME280;29800;55.942;37.314;2023-04-30T06:07:46;99741.75;;;12.99;49.65
44138;BME280;29800;55.942;37.314;2023-04-30T06:10:13;99735.41;;;13.47;49.67
44138;BME280;29800;55.942;37.314;2023-04-30T06:12:39;99729.94;;;13.67;44.85
44138;BME280;29800;55.942;37.314;2023-04-30T06:15:06;99742.09;;;13.87;44.39
44138;BME280;29800;55.942;37.314;2023-04-30T06:17:32;99741.56;;;14.00;44.50
44138;BME280;29800;55.942;37.314;2023-04-30T06:19:59;99748.19;;;13.99;43.16
44138;BME280;29800;55.942;37.314;2023-04-30T06:22:32;99743.78;;;14.03;43.55
44138;BME280;29800;55.942;37.314;2023-04-30T06:24:59;99743.25;;;14.06;44.18
44138;BME280;29800;55.942;37.314;2023-04-30T06:27:25;99746.53;;;13.93;41.91
44138;BME280;29800;55.942;37.314;2023-04-30T06:29:57;99738.28;;;13.93;44.08
44138;BME280;29800;55.942;37.314;2023-04-30T06:32:26;99738.28;;;13.98;43.78
44138;BME280;29800;55.942;37.314;2023-04-30T06:34:52;99738.28;;;14.08;43.39
44138;BME280;29800;55.942;37.314;2023-04-30T06:37:18;99746.56;;;14.19;42.06
44138;BME280;29800;55.942;37.314;2023-04-30T06:39:45;99741.59;;;14.26;42.76
44138;BME280;29800;55.942;37.314;2023-04-30T06:42:11;99739.41;;;14.33;42.82
44138;BME280;29800;55.942;37.314;2023-04-30T06:44:38;99746.59;;;14.49;43.26
44138;BME280;29800;55.942;37.314;2023-04-30T06:47:04;99738.03;;;14.56;40.96
44138;BME280;29800;55.942;37.314;2023-04-30T06:49:34;99736.69;;;14.74;41.55
44138;BME280;29800;55.942;37.314;2023-04-30T06:52:00;99731.97;;;14.75;40.52
44138;BME280;29800;55.942;37.314;2023-04-30T06:54:27;99724.53;;;14.80;39.66
44138;BME280;29800;55.942;37.314;2023-04-30T06:56:54;99728.09;;;14.76;39.08
44138;BME280;29800;55.942;37.314;2023-04-30T06:59:20;99727.84;;;14.87;37.65
44138;BME280;29800;55.942;37.314;2023-04-30T07:01:47;99723.41;;;14.92;36.96
44138;BME280;29800;55.942;37.314;2023-04-30T07:04:13;99710.94;;;15.10;38.04
44138;BME280;29800;55.942;37.314;2023-04-30T07:06:39;99715.38;;;15.11;38.77
44138;BME280;29800;55.942;37.314;2023-04-30T07:09:06;99709.59;;;14.97;38.42
44138;BME280;29800;55.942;37.314;2023-04-30T07:11:32;99707.13;;;14.90;38.18
44138;BME280;29800;55.942;37.314;2023-04-30T07:13:59;99709.66;;;14.81;38.03
44138;BME280;29800;55.942;37.314;2023-04-30T07:16:25;99702.53;;;14.49;36.06
44138;BME280;29800;55.942;37.314;2023-04-30T07:18:52;99694.81;;;14.26;37.78
44138;BME280;29800;55.942;37.314;2023-04-30T07:21:19;99695.38;;;14.12;37.65
44138;BME280;29800;55.942;37.314;2023-04-30T07:23:46;99681.59;;;14.02;37.50
44138;BME280;29800;55.942;37.314;2023-04-30T07:26:13;99682.16;;;14.09;38.64
44138;BME280;29800;55.942;37.314;2023-04-30T07:28:40;99674.72;;;14.25;37.71
44138;BME280;29800;55.942;37.314;2023-04-30T07:50:13;99665.66;;;13.99;34.97
44138;BME280;29800;55.942;37.314;2023-04-30T07:52:40;99655.72;;;14.08;34.91
44138;BME280;29800;55.942;37.314;2023-04-30T07:55:07;99654.91;;;14.03;35.14
44138;BME280;29800;55.942;37.314;2023-04-30T07:57:34;99652.16;;;14.08;36.79
44138;BME280;29800;55.942;37.314;2023-04-30T08:00:00;99652.41;;;14.11;37.36
44138;BME280;29800;55.942;37.314;2023-04-30T08:02:29;99648.03;;;14.10;35.66
44138;BME280;29800;55.942;37.314;2023-04-30T08:04:56;99634.56;;;14.04;34.29
44138;BME280;29800;55.942;37.314;2023-04-30T08:07:22;99633.72;;;13.93;35.08
44138;BME280;29800;55.942;37.314;2023-04-30T08:09:50;99617.75;;;13.85;34.84
44138;BME280;29800;55.942;37.314;2023-04-30T08:12:16;99616.66;;;13.96;36.32
44138;BME280;29800;55.942;37.314;2023-04-30T08:14:43;99608.41;;;13.91;35.61
44138;BME280;29800;55.942;37.314;2023-04-30T08:17:10;99606.22;;;13.93;34.98
44138;BME280;29800;55.942;37.314;2023-04-30T08:19:36;99591.63;;;14.03;35.67
44138;BME280;29800;55.942;37.314;2023-04-30T08:22:03;99594.63;;;14.06;35.01
44138;BME280;29800;55.942;37.314;2023-04-30T08:24:29;99592.44;;;13.98;35.33
44138;BME280;29800;55.942;37.314;2023-04-30T08:26:55;99595.22;;;13.83;35.10
44138;BME280;29800;55.942;37.314;2023-04-30T08:29:21;99584.75;;;13.69;34.37
44138;BME280;29800;55.942;37.314;2023-04-30T08:31:48;99578.41;;;13.58;34.67
44138;BME280;29800;55.942;37.314;2023-04-30T08:34:14;99585.84;;;13.53;36.61
44138;BME280;29800;55.942;37.314;2023-04-30T08:36:40;99572.06;;;13.48;35.83
44138;BME280;29800;55.942;37.314;2023-04-30T08:39:07;99568.53;;;13.63;36.95
44138;BME280;29800;55.942;37.314;2023-04-30T08:41:35;99564.41;;;13.60;35.23
44138;BME280;29800;55.942;37.314;2023-04-30T08:44:02;99559.44;;;13.57;35.08
44138;BME280;29800;55.942;37.314;2023-04-30T08:46:31;99559.16;;;13.53;36.22
44138;BME280;29800;55.942;37.314;2023-04-30T08:48:58;99545.97;;;13.45;36.16
44138;BME280;29800;55.942;37.314;2023-04-30T08:51:25;99552.56;;;13.44;35.11
44138;BME280;29800;55.942;37.314;2023-04-30T08:53:54;99545.41;;;13.38;35.44
44138;BME280;29800;55.942;37.314;2023-04-30T08:56:20;99535.75;;;13.25;35.66
44138;BME280;29800;55.942;37.314;2023-04-30T08:58:46;99541.25;;;13.20;36.42
44138;BME280;29800;55.942;37.314;2023-04-30T09:01:13;99545.63;;;13.11;35.72
44138;BME280;29800;55.942;37.314;2023-04-30T09:03:40;99536.59;;;13.36;40.67
44138;BME280;29800;55.942;37.314;2023-04-30T09:06:07;99533.59;;;13.58;40.26
44138;BME280;29800;55.942;37.314;2023-04-30T09:09:07;99528.38;;;13.72;37.22
44138;BME280;29800;55.942;37.314;2023-04-30T09:11:34;99516.28;;;13.52;35.01
44138;BME280;29800;55.942;37.314;2023-04-30T09:14:01;99508.28;;;13.46;34.78
44138;BME280;29800;55.942;37.314;2023-04-30T09:16:30;99511.06;;;13.40;35.57
44138;BME280;29800;55.942;37.314;2023-04-30T09:19:21;99516.25;;;13.32;36.40
44138;BME280;29800;55.942;37.314;2023-04-30T09:21:47;99507.16;;;13.21;35.60
44138;BME280;29800;55.942;37.314;2023-04-30T09:24:14;99504.13;;;13.22;36.15
44138;BME280;29800;55.942;37.314;2023-04-30T09:26:41;99496.75;;;13.33;39.13
44138;BME280;29800;55.942;37.314;2023-04-30T09:29:07;99493.97;;;13.23;35.23
44138;BME280;29800;55.942;37.314;2023-04-30T09:31:43;99496.16;;;13.21;35.72
44138;BME280;29800;55.942;37.314;2023-04-30T09:34:13;99484.91;;;13.12;36.41
44138;BME280;29800;55.942;37.314;2023-04-30T09:36:53;99477.47;;;13.13;36.23
44138;BME280;29800;55.942;37.314;2023-04-30T09:39:20;99473.31;;;13.00;35.92
44138;BME280;29800;55.942;37.314;2023-04-30T09:41:46;99466.47;;;12.92;35.79
44138;BME280;29800;55.942;37.314;2023-04-30T09:44:35;99456.03;;;12.94;36.96
44138;BME280;29800;55.942;37.314;2023-04-30T09:47:02;99452.69;;;12.82;37.47
44138;BME280;29800;55.942;37.314;2023-04-30T09:49:28;99443.09;;;12.79;36.55
44138;BME280;29800;55.942;37.314;2023-04-30T09:51:59;99444.44;;;12.77;36.83
44138;BME280;29800;55.942;37.314;2023-04-30T09:54:30;99449.94;;;12.72;37.20
44138;BME280;29800;55.942;37.314;2023-04-30T09:56:58;99437.88;;;12.67;36.65
44138;BME280;29800;55.942;37.314;2023-04-30T09:59:30;99440.91;;;12.86;38.30
44138;BME280;29800;55.942;37.314;2023-04-30T10:02:02;99440.63;;;12.83;37.25
44138;BME280;29800;55.942;37.314;2023-04-30T10:04:40;99425.81;;;13.04;38.75
44138;BME280;29800;55.942;37.314;2023-04-30T10:07:15;99422.53;;;13.02;36.95
44138;BME280;29800;55.942;37.314;2023-04-30T10:10:06;99429.09;;;13.06;39.14
44138;BME280;29800;55.942;37.314;2023-04-30T10:12:50;99415.91;;;12.98;37.47
44138;BME280;29800;55.942;37.314;2023-04-30T10:15:24;99414.00;;;12.99;38.71
44138;BME280;29800;55.942;37.314;2023-04-30T10:17:58;99418.66;;;12.98;36.83
44138;BME280;29800;55.942;37.314;2023-04-30T10:20:26;99417.56;;;12.94;36.66
44138;BME280;29800;55.942;37.314;2023-04-30T10:22:53;99420.88;;;12.96;36.71
44138;BME280;29800;55.942;37.314;2023-04-30T10:25:19;99419.78;;;12.97;36.54
44138;BME280;29800;55.942;37.314;2023-04-30T10:27:47;99423.59;;;13.01;36.65
44138;BME280;29800;55.942;37.314;2023-04-30T10:30:14;99418.13;;;13.37;42.27
44138;BME280;29800;55.942;37.314;2023-04-30T10:32:50;99416.72;;;13.30;37.42
44138;BME280;29800;55.942;37.314;2023-04-30T10:35:29;99414.56;;;13.27;37.37
44138;BME280;29800;55.942;37.314;2023-04-30T10:38:20;99415.66;;;13.26;36.95
44138;BME280;29800;55.942;37.314;2023-04-30T10:40:48;99416.50;;;13.36;41.20
44138;BME280;29800;55.942;37.314;2023-04-30T10:43:16;99414.53;;;13.21;36.75
44138;BME280;29800;55.942;37.314;2023-04-30T10:45:44;99414.25;;;13.18;37.07
44138;BME280;29800;55.942;37.314;2023-04-30T10:48:14;99422.78;;;13.16;36.82
44138;BME280;29800;55.942;37.314;2023-04-30T10:50:44;99427.47;;;13.16;37.73
44138;BME280;29800;55.942;37.314;2023-04-30T10:53:17;99430.47;;;13.14;37.57
44138;BME280;29800;55.942;37.314;2023-04-30T10:55:51;99425.53;;;13.16;39.74
44138;BME280;29800;55.942;37.314;2023-04-30T10:58:31;99432.97;;;13.21;36.82
44138;BME280;29800;55.942;37.314;2023-04-30T11:01:10;99428.28;;;13.21;36.79
44138;BME280;29800;55.942;37.314;2023-04-30T11:03:39;99417.59;;;13.20;36.73
44138;BME280;29800;55.942;37.314;2023-04-30T11:06:13;99417.28;;;13.16;36.42
44138;BME280;29800;55.942;37.314;2023-04-30T11:08:44;99419.75;;;13.23;38.03
44138;BME280;29800;55.942;37.314;2023-04-30T11:11:13;99411.00;;;13.36;38.50
44138;BME280;29800;55.942;37.314;2023-04-30T11:13:47;99414.81;;;13.66;37.52
44138;BME280;29800;55.942;37.314;2023-04-30T11:16:17;99415.31;;;13.78;38.13
44138;BME280;29800;55.942;37.314;2023-04-30T11:18:45;99420.25;;;13.87;36.90
44138;BME280;29800;55.942;37.314;2023-04-30T11:21:12;99418.03;;;13.94;35.84
44138;BME280;29800;55.942;37.314;2023-04-30T11:23:42;99411.97;;;13.97;36.47
44138;BME280;29800;55.942;37.314;2023-04-30T11:26:10;99413.66;;;13.83;35.51
44138;BME280;29800;55.942;37.314;2023-04-30T11:28:37;99405.44;;;13.67;35.36
44138;BME280;29800;55.942;37.314;2023-04-30T11:31:04;99403.28;;;13.49;35.89
44138;BME280;29800;55.942;37.314;2023-04-30T11:33:32;99402.75;;;13.41;36.34
44138;BME280;29800;55.942;37.314;2023-04-30T11:35:59;99406.03;;;13.44;35.82
44138;BME280;29800;55.942;37.314;2023-04-30T11:38:33;99404.94;;;13.50;36.44
44138;BME280;29800;55.942;37.314;2023-04-30T11:41:01;99392.81;;;13.56;38.27
44138;BME280;29800;55.942;37.314;2023-04-30T11:43:32;99394.22;;;13.43;36.56
44138;BME280;29800;55.942;37.314;2023-04-30T11:48:35;99380.22;;;13.34;37.01
44138;BME280;29800;55.942;37.314;2023-04-30T11:51:03;99376.09;;;13.27;36.33
44138;BME280;29800;55.942;37.314;2023-04-30T11:53:30;99367.00;;;13.16;36.73
44138;BME280;29800;55.942;37.314;2023-04-30T11:56:01;99355.75;;;13.17;37.75
44138;BME280;29800;55.942;37.314;2023-04-30T11:58:31;99352.16;;;13.06;37.13
44138;BME280;29800;55.942;37.314;2023-04-30T12:00:59;99339.00;;;12.98;36.45
44138;BME280;29800;55.942;37.314;2023-04-30T12:03:25;99334.34;;;12.94;37.44
44138;BME280;29800;55.942;37.314;2023-04-30T12:05:52;99333.50;;;12.88;37.35
44138;BME280;29800;55.942;37.314;2023-04-30T12:08:18;99333.25;;;12.84;37.05
44138;BME280;29800;55.942;37.314;2023-04-30T12:10:44;99337.91;;;12.79;37.90
44138;BME280;29800;55.942;37.314;2023-04-30T12:13:14;99331.88;;;12.77;37.56
44138;BME280;29800;55.942;37.314;2023-04-30T12:15:56;99329.13;;;12.77;37.81
44138;BME280;29800;55.942;37.314;2023-04-30T12:18:24;99335.16;;;12.68;37.63
44138;BME280;29800;55.942;37.314;2023-04-30T12:20:51;99339.28;;;12.71;39.18
44138;BME280;29800;55.942;37.314;2023-04-30T12:23:18;99337.91;;;12.68;38.58
44138;BME280;29800;55.942;37.314;2023-04-30T12:25:45;99318.13;;;12.72;37.81
44138;BME280;29800;55.942;37.314;2023-04-30T12:28:12;99326.38;;;12.72;37.70
44138;BME280;29800;55.942;37.314;2023-04-30T12:30:41;99329.13;;;12.72;37.62
44138;BME280;29800;55.942;37.314;2023-04-30T12:33:09;99323.06;;;12.80;38.65
44138;BME280;29800;55.942;37.314;2023-04-30T12:35:35;99329.13;;;12.72;37.06
44138;BME280;29800;55.942;37.314;2023-04-30T12:38:04;99324.16;;;12.68;37.74
44138;BME280;29800;55.942;37.314;2023-04-30T12:40:30;99314.84;;;12.59;37.60
44138;BME280;29800;55.942;37.314;2023-04-30T12:43:05;99324.19;;;12.58;38.31
44138;BME280;29800;55.942;37.314;2023-04-30T12:45:58;99327.47;;;12.60;38.24
44138;BME280;29800;55.942;37.314;2023-04-30T12:48:24;99337.31;;;12.46;38.00
44138;BME280;29800;55.942;37.314;2023-04-30T12:50:58;99332.09;;;12.44;37.91
44138;BME280;29800;55.942;37.314;2023-04-30T12:53:27;99335.13;;;12.43;38.38
44138;BME280;29800;55.942;37.314;2023-04-30T12:56:09;99323.88;;;12.44;38.13
44138;BME280;29800;55.942;37.314;2023-04-30T12:58:47;99321.13;;;12.39;38.15
44138;BME280;29800;55.942;37.314;2023-04-30T13:01:20;99316.47;;;12.40;38.08
44138;BME280;29800;55.942;37.314;2023-04-30T13:03:47;99297.25;;;12.35;37.96
44138;BME280;29800;55.942;37.314;2023-04-30T13:06:14;99304.94;;;12.32;38.85
44138;BME280;29800;55.942;37.314;2023-04-30T13:08:41;99296.97;;;12.31;38.49
44138;BME280;29800;55.942;37.314;2023-04-30T13:11:08;99293.41;;;12.30;39.08
44138;BME280;29800;55.942;37.314;2023-04-30T13:13:34;99295.34;;;12.25;38.78
44138;BME280;29800;55.942;37.314;2023-04-30T13:16:01;99295.03;;;12.21;38.85
44138;BME280;29800;55.942;37.314;2023-04-30T13:18:27;99294.50;;;12.24;38.76
44138;BME280;29800;55.942;37.314;2023-04-30T13:20:53;99291.75;;;12.24;39.13
44138;BME280;29800;55.942;37.314;2023-04-30T13:23:20;99291.75;;;12.19;40.02
44138;BME280;29800;55.942;37.314;2023-04-30T13:25:46;99285.72;;;12.17;39.18
44138;BME280;29800;55.942;37.314;2023-04-30T13:28:13;99295.84;;;12.17;39.53
44138;BME280;29800;55.942;37.314;2023-04-30T13:30:39;99288.72;;;12.16;39.55
44138;BME280;29800;55.942;37.314;2023-04-30T13:33:06;99293.66;;;12.19;40.13
44138;BME280;29800;55.942;37.314;2023-04-30T13:35:32;99288.19;;;12.19;40.29
44138;BME280;29800;55.942;37.314;2023-04-30T13:37:59;99279.94;;;12.19;40.22
44138;BME280;29800;55.942;37.314;2023-04-30T13:40:26;99277.19;;;12.13;40.66
44138;BME280;29800;55.942;37.314;2023-04-30T13:42:52;99272.53;;;12.09;40.74